Time;durP1;ratioP1;P1;durP2;ratioP2;P2;SDS_P1;SDS_P2;PMS_P1;PMS_P2;Temp;Humidity;BMP_temperature;BMP_pressure;BME280_temperature;BME280_humidity;BME280_pressure;Samples;Min_cycle;Max_cycle;Signal;HPM_P1;HPM_P2
2021/10/24 00:00:34;;;;;;;3.30;1.67;;;;;;;7.06;75.05;98913.75;5081030;28;20028;-61
2021/10/24 00:03:20;;;;;;;3.42;1.95;;;;;;;7.04;75.21;98919.81;5082495;28;20027;-62
2021/10/24 00:06:06;;;;;;;3.03;1.75;;;;;;;7.03;75.66;98920.72;5083251;28;20035;-61
2021/10/24 00:08:52;;;;;;;2.15;1.73;;;;;;;7.11;74.95;98918.81;5082189;28;20055;-62
2021/10/24 00:11:38;;;;;;;1.92;1.65;;;;;;;7.08;75.24;98922.31;5052355;28;20032;-61
2021/10/24 00:14:24;;;;;;;1.90;1.80;;;;;;;7.19;74.96;98923.81;5064521;28;20057;-61
2021/10/24 00:17:10;;;;;;;3.22;1.85;;;;;;;7.07;75.04;98910.31;5066341;28;20016;-61
2021/10/24 00:19:56;;;;;;;2.28;1.83;;;;;;;6.97;75.84;98911.38;5081073;28;20099;-60
2021/10/24 00:22:42;;;;;;;3.33;1.90;;;;;;;6.98;76.04;98918.19;5068904;28;20066;-60
2021/10/24 00:25:28;;;;;;;2.40;2.10;;;;;;;7.07;75.92;98923.19;5084834;28;20202;-61
2021/10/24 00:28:14;;;;;;;3.78;2.38;;;;;;;6.96;75.88;98919.97;5094986;28;20376;-62
2021/10/24 00:31:01;;;;;;;3.15;1.98;;;;;;;6.82;76.05;98911.66;5083619;28;20051;-61
2021/10/24 00:33:47;;;;;;;2.42;2.08;;;;;;;6.93;76.17;98925.19;5081399;28;20359;-61
2021/10/24 00:36:33;;;;;;;2.20;2.00;;;;;;;6.57;75.85;98869.22;5084473;28;20028;-61
2021/10/24 00:39:19;;;;;;;1.85;1.73;;;;;;;7.03;76.19;98925.84;5080365;28;20021;-62
2021/10/24 00:42:05;;;;;;;5.35;2.28;;;;;;;7.00;75.92;98925.91;5080318;28;20024;-61
2021/10/24 00:44:50;;;;;;;3.63;2.13;;;;;;;7.04;75.69;98930.09;5079060;28;20282;-61
2021/10/24 00:47:37;;;;;;;2.30;2.10;;;;;;;6.91;76.51;98938.09;5083458;28;20028;-61
2021/10/24 00:50:25;;;;;;;2.55;2.08;;;;;;;7.07;76.68;98940.38;5084367;28;20025;-61
2021/10/24 00:53:14;;;;;;;4.45;2.33;;;;;;;6.88;76.11;98896.09;5083521;28;20025;-61
2021/10/24 00:56:00;;;;;;;3.03;2.10;;;;;;;6.94;77.12;98939.75;5079659;28;20020;-61
2021/10/24 00:58:47;;;;;;;2.80;2.30;;;;;;;6.96;77.88;98948.28;5083264;28;20032;-61
2021/10/24 01:01:33;;;;;;;2.55;2.17;;;;;;;6.96;77.86;98938.00;5084324;28;20020;-61
2021/10/24 01:04:19;;;;;;;2.10;1.90;;;;;;;7.00;78.46;98939.63;5084033;28;20024;-61
2021/10/24 01:07:06;;;;;;;2.60;1.95;;;;;;;7.01;78.83;98943.91;5090870;28;20082;-62
2021/10/24 01:09:52;;;;;;;4.63;2.20;;;;;;;6.96;78.85;98945.72;5086538;28;20040;-62
2021/10/24 01:12:39;;;;;;;2.60;1.80;;;;;;;6.89;79.12;98947.53;5080968;28;20044;-60
2021/10/24 01:15:25;;;;;;;3.80;2.25;;;;;;;6.95;79.14;98943.16;5083711;28;20047;-60
2021/10/24 01:18:11;;;;;;;4.03;2.50;;;;;;;7.01;78.62;98938.75;5082213;28;20432;-60
2021/10/24 01:20:57;;;;;;;4.28;2.40;;;;;;;7.05;79.10;98947.25;5082453;28;20082;-61
2021/10/24 01:23:43;;;;;;;3.15;2.25;;;;;;;7.00;78.69;98952.50;5065057;28;20036;-60
2021/10/24 01:26:29;;;;;;;3.40;2.03;;;;;;;7.03;78.39;98946.44;5080336;28;20031;-60
2021/10/24 01:29:15;;;;;;;2.80;1.90;;;;;;;7.07;79.16;98940.38;5080930;28;20040;-60
2021/10/24 01:32:01;;;;;;;5.28;2.15;;;;;;;7.12;78.37;98946.25;5078198;28;20229;-60
2021/10/24 01:34:48;;;;;;;2.33;2.13;;;;;;;7.11;78.49;98944.56;5079913;28;20024;-61
2021/10/24 01:37:40;;;;;;;3.63;2.13;;;;;;;7.08;78.42;98947.19;5081959;28;20356;-62
2021/10/24 01:40:26;;;;;;;2.50;2.10;;;;;;;7.02;79.07;98947.31;5080273;28;20817;-61
2021/10/24 01:43:12;;;;;;;4.38;2.38;;;;;;;6.95;78.45;98951.72;5080924;28;20026;-61
2021/10/24 01:45:58;;;;;;;2.95;2.05;;;;;;;6.99;78.61;98948.22;5081334;28;20033;-61
2021/10/24 01:48:44;;;;;;;3.30;2.17;;;;;;;7.01;78.33;98953.34;5063077;28;20356;-60
2021/10/24 01:51:30;;;;;;;2.70;1.98;;;;;;;6.94;78.58;98957.78;5078854;28;20319;-60
2021/10/24 01:54:16;;;;;;;3.63;2.38;;;;;;;6.92;78.58;98959.50;5063847;28;20028;-60
2021/10/24 01:57:02;;;;;;;2.45;2.25;;;;;;;6.90;78.40;98961.28;5080798;28;20024;-60
2021/10/24 01:59:48;;;;;;;3.38;2.60;;;;;;;6.95;78.04;98958.63;5081884;28;20325;-60
2021/10/24 02:02:34;;;;;;;4.50;2.20;;;;;;;6.99;77.74;98955.94;5082293;28;20032;-60
2021/10/24 02:05:20;;;;;;;2.58;2.30;;;;;;;7.01;77.32;98963.63;5077317;28;20031;-62
2021/10/24 02:08:07;;;;;;;2.40;2.20;;;;;;;7.06;77.44;98964.41;5078517;28;20024;-61
2021/10/24 02:10:53;;;;;;;4.78;2.30;;;;;;;7.14;77.76;98961.69;5081852;28;20092;-61
2021/10/24 02:13:39;;;;;;;3.00;2.40;;;;;;;6.96;77.87;98970.63;5082082;28;20020;-60
2021/10/24 02:16:25;;;;;;;2.10;1.90;;;;;;;7.01;77.52;98967.06;5077265;28;20254;-61
2021/10/24 02:19:11;;;;;;;2.50;1.90;;;;;;;7.06;77.02;98966.97;5058113;28;20035;-61
2021/10/24 02:21:57;;;;;;;3.53;2.45;;;;;;;7.00;77.29;98967.94;5085360;28;20025;-61
2021/10/24 02:24:43;;;;;;;2.15;1.90;;;;;;;7.04;77.29;98961.88;5069691;28;20056;-61
2021/10/24 02:27:29;;;;;;;3.40;2.13;;;;;;;6.97;76.23;98975.72;5074846;28;20051;-61
2021/10/24 02:30:16;;;;;;;2.55;1.90;;;;;;;7.16;75.89;98972.81;5081226;28;20021;-60
2021/10/24 02:33:02;;;;;;;2.22;1.83;;;;;;;7.19;76.43;98970.16;5070704;28;20058;-61
2021/10/24 02:35:48;;;;;;;2.70;1.60;;;;;;;7.15;76.29;98981.41;5084954;28;20024;-60
2021/10/24 02:38:34;;;;;;;2.58;1.77;;;;;;;7.06;75.63;98961.84;5082248;28;20029;-60
2021/10/24 02:41:20;;;;;;;2.08;1.77;;;;;;;7.24;76.22;98976.09;5072693;28;20017;-61
2021/10/24 02:44:06;;;;;;;2.65;1.77;;;;;;;7.23;75.82;98971.81;5077195;28;20104;-60
2021/10/24 02:46:56;;;;;;;2.05;1.60;;;;;;;6.74;76.20;98920.38;5066964;28;20031;-61
2021/10/24 02:49:42;;;;;;;1.88;1.70;;;;;;;7.02;76.57;98981.63;5084727;28;20036;-61
2021/10/24 02:52:28;;;;;;;1.95;1.60;;;;;;;7.03;78.30;98991.06;5075393;28;20013;-59
2021/10/24 02:55:14;;;;;;;1.55;1.40;;;;;;;6.92;78.74;98980.09;5079488;28;20043;-60
2021/10/24 02:58:00;;;;;;;2.10;1.20;;;;;;;6.97;78.87;98982.59;5081503;28;20020;-61
2021/10/24 03:00:46;;;;;;;1.30;1.13;;;;;;;6.98;79.38;98979.97;5084854;28;20202;-60
2021/10/24 03:03:31;;;;;;;2.78;1.30;;;;;;;6.71;80.77;98986.47;5085051;28;20024;-61
2021/10/24 03:06:17;;;;;;;2.22;1.38;;;;;;;6.66;80.91;98978.00;5068788;28;20037;-61
2021/10/24 03:09:03;;;;;;;1.98;1.27;;;;;;;6.73;81.08;98980.44;5082040;28;20091;-61
2021/10/24 03:11:49;;;;;;;1.25;1.13;;;;;;;6.85;80.50;98993.97;5082683;28;20042;-61
2021/10/24 03:14:35;;;;;;;2.80;1.50;;;;;;;6.84;80.82;98989.69;5068043;28;20048;-60
2021/10/24 03:17:21;;;;;;;3.70;1.42;;;;;;;6.85;80.70;98988.81;5082932;28;20020;-60
2021/10/24 03:20:08;;;;;;;2.15;1.35;;;;;;;6.78;81.35;98988.06;5061481;28;20082;-60
2021/10/24 03:22:53;;;;;;;2.58;1.42;;;;;;;6.67;81.15;98985.69;5083622;28;20032;-60
2021/10/24 03:25:40;;;;;;;1.55;1.45;;;;;;;6.72;80.94;98988.19;5080766;28;20088;-60
2021/10/24 03:28:26;;;;;;;1.73;1.30;;;;;;;6.73;80.51;98988.16;5083635;28;20039;-61
2021/10/24 03:31:12;;;;;;;1.65;1.55;;;;;;;6.71;81.18;98992.47;5083468;28;20150;-61
2021/10/24 03:33:57;;;;;;;2.20;1.80;;;;;;;6.71;80.54;98992.47;5080913;28;20020;-61
2021/10/24 03:36:43;;;;;;;2.22;1.73;;;;;;;6.73;80.31;99001.00;5083225;28;20187;-60
2021/10/24 03:39:29;;;;;;;4.70;2.15;;;;;;;6.71;80.59;98992.47;5065085;28;20021;-60
2021/10/24 03:42:15;;;;;;;1.50;1.40;;;;;;;6.80;80.13;99006.03;5083531;28;20099;-60
2021/10/24 03:45:01;;;;;;;3.13;1.50;;;;;;;6.56;80.19;99001.28;5083170;28;20024;-60
2021/10/24 03:47:47;;;;;;;1.77;1.17;;;;;;;6.60;79.84;99017.53;5066810;28;20036;-61
2021/10/24 03:50:33;;;;;;;0.90;0.90;;;;;;;6.68;79.41;98997.69;5067531;28;20131;-60
2021/10/24 03:53:19;;;;;;;1.15;1.05;;;;;;;6.74;80.10;99007.00;5066349;28;20021;-60
2021/10/24 03:56:05;;;;;;;1.45;1.05;;;;;;;6.73;78.94;98998.44;5079616;28;20031;-60
2021/10/24 03:58:52;;;;;;;1.20;0.88;;;;;;;6.85;79.05;99006.81;5068472;28;20024;-62
2021/10/24 04:01:38;;;;;;;1.50;1.10;;;;;;;6.86;79.28;99005.97;5081435;28;20020;-62
2021/10/24 04:04:24;;;;;;;1.10;1.00;;;;;;;6.59;79.96;99002.97;5082361;28;20028;-60
2021/10/24 04:07:11;;;;;;;0.90;0.90;;;;;;;6.43;81.42;99006.66;5082056;28;20031;-62
2021/10/24 04:09:56;;;;;;;1.35;1.10;;;;;;;6.37;81.90;99017.88;5080117;28;20024;-62
2021/10/24 04:12:43;;;;;;;0.95;0.90;;;;;;;6.51;82.20;99020.25;5076788;28;20043;-60
2021/10/24 04:15:29;;;;;;;1.05;0.82;;;;;;;6.36;81.80;99026.50;5070579;28;20122;-60
2021/10/24 04:18:15;;;;;;;1.30;1.05;;;;;;;6.43;81.57;99029.78;5080444;28;20043;-60
2021/10/24 04:21:00;;;;;;;0.88;0.88;;;;;;;6.59;81.29;99027.84;5080679;28;20025;-61
2021/10/24 04:23:47;;;;;;;2.13;1.00;;;;;;;6.62;81.22;99030.38;5073996;28;20165;-60
2021/10/24 04:26:33;;;;;;;1.13;1.02;;;;;;;6.59;81.68;99036.41;5075908;28;20025;-62
2021/10/24 04:29:19;;;;;;;1.52;1.42;;;;;;;6.71;81.31;99037.94;5075931;28;20073;-61
2021/10/24 04:32:05;;;;;;;1.48;1.10;;;;;;;6.66;81.74;99032.88;5073361;28;20028;-61
2021/10/24 04:34:51;;;;;;;3.30;1.10;;;;;;;6.63;82.30;99045.78;5078052;28;20051;-60
2021/10/24 04:37:37;;;;;;;2.40;1.10;;;;;;;6.69;81.99;99053.41;5063991;28;20059;-61
2021/10/24 04:40:24;;;;;;;1.23;0.90;;;;;;;6.59;82.91;99057.00;5060463;28;20033;-61
2021/10/24 04:43:17;;;;;;;1.73;0.88;;;;;;;6.50;83.07;99044.25;5065865;28;20033;-60
2021/10/24 04:46:03;;;;;;;0.82;0.80;;;;;;;6.59;83.08;99056.16;5071334;28;20304;-61
2021/10/24 04:48:49;;;;;;;0.70;0.70;;;;;;;6.60;82.82;99060.41;5080421;28;20056;-62
2021/10/24 04:51:35;;;;;;;1.27;0.85;;;;;;;6.59;83.39;99064.72;5079795;28;20020;-60
2021/10/24 04:54:23;;;;;;;1.20;0.85;;;;;;;6.56;83.39;99064.75;5065887;28;20028;-60
2021/10/24 04:57:09;;;;;;;0.70;0.70;;;;;;;6.61;83.70;99068.09;5082018;28;20070;-61
2021/10/24 04:59:55;;;;;;;1.52;0.70;;;;;;;6.68;83.38;99079.16;5079283;28;20089;-61
2021/10/24 05:02:41;;;;;;;1.38;1.00;;;;;;;6.52;83.84;99093.97;5065609;28;20335;-60
2021/10/24 05:05:27;;;;;;;1.77;0.80;;;;;;;6.39;83.92;99090.72;5062261;28;20024;-61
2021/10/24 05:08:13;;;;;;;0.77;0.70;;;;;;;6.37;84.33;99100.16;5079128;28;20333;-61
2021/10/24 05:10:59;;;;;;;0.70;0.70;;;;;;;6.38;83.96;99102.75;5073650;28;20098;-61
2021/10/24 05:13:45;;;;;;;1.50;0.82;;;;;;;6.35;83.67;99104.50;5080300;28;20134;-64
2021/10/24 05:16:31;;;;;;;2.35;0.70;;;;;;;6.31;83.55;99107.97;5079467;28;20089;-61
2021/10/24 05:19:17;;;;;;;1.00;0.90;;;;;;;6.29;83.79;99112.31;5074629;28;20055;-60
2021/10/24 05:22:03;;;;;;;0.50;0.50;;;;;;;6.42;83.39;99116.41;5050496;28;20040;-60
2021/10/24 05:24:49;;;;;;;1.55;0.80;;;;;;;6.38;83.86;99120.75;5080000;28;20040;-60
2021/10/24 05:27:35;;;;;;;0.40;0.40;;;;;;;6.30;84.10;99114.84;5064333;28;20084;-60
2021/10/24 05:30:21;;;;;;;1.65;0.55;;;;;;;6.43;83.69;99124.97;5066139;28;20057;-60
2021/10/24 05:33:07;;;;;;;0.98;0.63;;;;;;;6.39;83.27;99122.44;5065481;28;20221;-60
2021/10/24 05:35:53;;;;;;;0.85;0.52;;;;;;;6.43;83.39;99125.81;5081128;28;20028;-59
2021/10/24 05:38:39;;;;;;;1.42;0.60;;;;;;;6.36;83.68;99132.75;5081162;28;20025;-58
2021/10/24 05:41:26;;;;;;;0.70;0.47;;;;;;;6.27;83.36;99130.31;5080309;28;20321;-58
2021/10/24 05:44:14;;;;;;;0.88;0.60;;;;;;;6.20;83.96;99144.97;5079788;28;20025;-59
2021/10/24 05:47:00;;;;;;;1.48;0.60;;;;;;;6.26;83.83;99144.03;5080743;28;20040;-59
2021/10/24 05:49:45;;;;;;;1.15;0.68;;;;;;;6.27;83.82;99148.31;5078905;28;20186;-60
2021/10/24 05:52:31;;;;;;;1.08;0.82;;;;;;;6.10;83.73;99147.66;5081708;28;20020;-61
2021/10/24 05:55:17;;;;;;;1.17;0.98;;;;;;;6.22;83.46;99153.50;5079207;28;20017;-61
2021/10/24 05:58:04;;;;;;;2.30;1.20;;;;;;;6.08;83.44;99165.69;5066663;28;20044;-61
2021/10/24 06:00:50;;;;;;;1.10;1.00;;;;;;;6.07;82.91;99165.69;5068880;28;20032;-62
2021/10/24 06:03:35;;;;;;;0.95;0.90;;;;;;;6.07;82.96;99165.69;5083968;28;20028;-60
2021/10/24 06:06:21;;;;;;;1.40;1.00;;;;;;;6.11;82.43;99168.22;5074465;28;20249;-60
2021/10/24 06:09:07;;;;;;;2.20;1.30;;;;;;;6.24;83.06;99174.06;5062478;28;20078;-60
2021/10/24 06:12:01;;;;;;;1.25;1.05;;;;;;;6.14;82.79;99186.19;5085438;28;20095;-60
2021/10/24 06:14:47;;;;;;;1.20;0.85;;;;;;;6.21;81.86;99184.38;5081114;28;20119;-61
2021/10/24 06:17:34;;;;;;;2.10;0.93;;;;;;;6.25;81.86;99183.47;5096353;28;20035;-61
2021/10/24 06:20:22;;;;;;;1.08;0.98;;;;;;;6.19;81.84;99204.13;5084446;28;20191;-62
2021/10/24 06:23:08;;;;;;;0.70;0.70;;;;;;;6.10;80.91;99188.78;5083714;28;20025;-61
2021/10/24 06:25:54;;;;;;;1.30;1.13;;;;;;;6.27;81.23;99189.47;5083352;28;20070;-61
2021/10/24 06:28:40;;;;;;;4.43;1.23;;;;;;;6.20;81.80;99196.41;5092407;28;20077;-61
2021/10/24 06:31:25;;;;;;;1.30;0.88;;;;;;;6.35;81.04;99194.50;5068344;28;20029;-59
2021/10/24 06:34:11;;;;;;;2.72;1.00;;;;;;;6.39;80.57;99204.72;5069237;28;20047;-60
2021/10/24 06:36:57;;;;;;;2.75;1.00;;;;;;;6.26;80.92;99204.91;5083045;28;20028;-60
2021/10/24 06:39:44;;;;;;;1.80;0.70;;;;;;;6.27;80.80;99211.75;5082910;28;20058;-57
2021/10/24 06:42:30;;;;;;;0.57;0.52;;;;;;;6.35;79.39;99204.78;5083725;28;20020;-60
2021/10/24 06:45:16;;;;;;;0.70;0.60;;;;;;;6.50;79.37;99214.91;5084528;28;20052;-61
2021/10/24 06:48:04;;;;;;;0.77;0.50;;;;;;;6.50;78.67;99212.31;5082694;28;20039;-61
2021/10/24 06:50:50;;;;;;;2.45;0.80;;;;;;;6.31;78.06;99213.41;5076438;28;20029;-61
2021/10/24 06:53:35;;;;;;;2.55;0.98;;;;;;;6.32;78.93;99215.97;5083339;28;20032;-61
2021/10/24 06:56:21;;;;;;;1.25;0.80;;;;;;;6.47;78.08;99216.63;5079434;28;20104;-60
2021/10/24 06:59:07;;;;;;;1.30;0.68;;;;;;;6.33;78.15;99227.13;5082394;28;20035;-60
2021/10/24 07:01:53;;;;;;;1.48;0.90;;;;;;;6.42;78.39;99221.00;5083721;28;20133;-61
2021/10/24 07:04:39;;;;;;;2.97;0.90;;;;;;;6.50;78.07;99229.47;5083002;28;20039;-61
2021/10/24 07:07:25;;;;;;;2.13;0.77;;;;;;;6.57;78.61;99229.38;5084517;28;20065;-60
2021/10/24 07:10:13;;;;;;;1.60;0.95;;;;;;;6.56;78.32;99216.53;5082195;28;20100;-61
2021/10/24 07:12:59;;;;;;;1.85;0.90;;;;;;;6.62;78.75;99229.31;5067281;28;20027;-60
2021/10/24 07:15:45;;;;;;;2.40;1.00;;;;;;;6.53;77.75;99230.28;5068560;28;20165;-61
2021/10/24 07:18:31;;;;;;;3.00;1.15;;;;;;;6.57;78.63;99241.41;5046112;28;20326;-59
2021/10/24 07:21:17;;;;;;;1.27;0.90;;;;;;;6.49;78.05;99226.03;5060767;28;20033;-61
2021/10/24 07:24:03;;;;;;;2.42;0.90;;;;;;;6.56;78.61;99250.81;5044377;28;20075;-60
2021/10/24 07:26:49;;;;;;;2.22;1.10;;;;;;;6.59;77.70;99247.38;5049402;28;20033;-61
2021/10/24 07:29:35;;;;;;;0.70;0.70;;;;;;;6.50;77.81;99248.34;5062489;28;20021;-60
2021/10/24 07:32:22;;;;;;;2.70;1.10;;;;;;;6.46;78.00;99250.97;5059487;28;20100;-60
2021/10/24 07:35:09;;;;;;;0.95;0.73;;;;;;;6.43;77.34;99251.84;5055438;28;20056;-61
2021/10/24 07:37:56;;;;;;;0.60;0.60;;;;;;;6.57;78.61;99267.97;5061735;28;20104;-61
2021/10/24 07:40:48;;;;;;;2.50;0.80;;;;;;;6.59;77.94;99267.94;5060181;28;20048;-61
2021/10/24 07:43:34;;;;;;;0.73;0.50;;;;;;;6.78;77.34;99273.72;5056018;28;20028;-60
2021/10/24 07:46:20;;;;;;;0.70;0.70;;;;;;;6.77;78.15;99276.31;5059010;28;20104;-62
2021/10/24 07:49:07;;;;;;;0.52;0.52;;;;;;;6.72;75.93;99284.09;5061978;28;20029;-62
2021/10/24 07:51:53;;;;;;;1.33;0.80;;;;;;;6.82;76.54;99292.56;5058944;28;20033;-63
2021/10/24 07:54:39;;;;;;;1.60;0.50;;;;;;;6.47;75.48;99283.53;5048782;28;20024;-62
2021/10/24 07:57:25;;;;;;;0.50;0.50;;;;;;;6.63;75.36;99294.50;5050697;28;20029;-61
2021/10/24 08:00:11;;;;;;;1.02;0.80;;;;;;;6.74;75.72;99293.50;5058815;28;20325;-62
2021/10/24 08:02:58;;;;;;;0.60;0.60;;;;;;;6.74;75.30;99305.50;5057566;28;20037;-62
2021/10/24 08:05:44;;;;;;;1.45;0.70;;;;;;;6.72;74.89;99297.78;5055711;28;20033;-62
2021/10/24 08:08:30;;;;;;;0.70;0.70;;;;;;;6.61;73.95;99275.66;5053271;28;20053;-62
2021/10/24 08:11:16;;;;;;;0.80;0.70;;;;;;;6.50;74.85;99304.06;5040993;28;20321;-62
2021/10/24 08:14:04;;;;;;;1.65;0.80;;;;;;;6.69;74.03;99315.84;5058692;28;20072;-61
2021/10/24 08:16:50;;;;;;;1.05;0.90;;;;;;;6.64;73.50;99306.47;5073782;28;20037;-61
2021/10/24 08:19:36;;;;;;;2.35;0.90;;;;;;;6.62;73.18;99309.06;5079207;28;20028;-62
2021/10/24 08:22:24;;;;;;;2.05;0.80;;;;;;;6.57;71.11;99316.00;5064410;28;20213;-62
2021/10/24 08:25:10;;;;;;;1.90;0.85;;;;;;;6.71;71.63;99321.84;5061019;28;20043;-63
2021/10/24 08:27:59;;;;;;;1.17;0.70;;;;;;;6.56;70.38;99337.47;5074727;28;20028;-62
2021/10/24 08:30:45;;;;;;;2.20;0.90;;;;;;;6.44;71.79;99329.84;5074728;28;20035;-61
2021/10/24 08:33:31;;;;;;;1.60;0.98;;;;;;;6.55;72.01;99343.47;5072608;28;20031;-61
2021/10/24 08:36:17;;;;;;;0.95;0.70;;;;;;;6.61;74.12;99342.53;5073512;28;20032;-61
2021/10/24 08:39:03;;;;;;;1.27;0.80;;;;;;;6.63;73.30;99335.69;5071880;28;20032;-61
2021/10/24 08:41:50;;;;;;;1.25;0.88;;;;;;;6.61;72.40;99350.25;5073391;28;20108;-63
2021/10/24 08:44:36;;;;;;;1.30;0.80;;;;;;;6.72;72.60;99359.56;5072988;28;20036;-63
2021/10/24 08:47:27;;;;;;;2.38;1.30;;;;;;;6.53;72.42;99340.91;5043275;28;20090;-64
2021/10/24 08:50:14;;;;;;;1.73;1.20;;;;;;;6.69;72.45;99374.19;5067864;28;20333;-62
2021/10/24 08:53:05;;;;;;;2.30;1.35;;;;;;;6.57;72.70;99370.03;5075288;28;20027;-66
2021/10/24 08:55:51;;;;;;;3.70;1.85;;;;;;;6.61;73.52;99373.41;5047467;28;20032;-66
2021/10/24 08:58:39;;;;;;;2.92;1.77;;;;;;;6.53;73.01;99383.81;5052991;28;20075;-65
2021/10/24 09:01:25;;;;;;;2.50;1.40;;;;;;;6.51;71.58;99383.81;5076713;28;20024;-63
2021/10/24 09:04:13;;;;;;;4.63;1.30;;;;;;;6.39;71.07;99397.63;5073794;28;20072;-63
2021/10/24 09:07:01;;;;;;;3.53;0.93;;;;;;;6.31;71.27;99383.97;5068957;28;20047;-65
2021/10/24 09:09:48;;;;;;;2.47;0.90;;;;;;;6.27;70.00;99399.44;5081730;28;20195;-64
2021/10/24 09:12:34;;;;;;;1.58;0.80;;;;;;;6.14;70.05;99406.41;5076850;28;20198;-64
2021/10/24 09:15:19;;;;;;;2.72;0.93;;;;;;;6.17;69.39;99398.66;5074476;28;20047;-65
2021/10/24 09:18:10;;;;;;;1.50;1.00;;;;;;;5.96;69.70;99403.09;5082215;28;20043;-64
2021/10/24 09:20:56;;;;;;;1.63;0.95;;;;;;;6.24;70.74;99415.75;5083937;28;20095;-63
2021/10/24 09:23:50;;;;;;;1.67;0.90;;;;;;;6.16;71.05;99426.13;5081254;28;20075;-67
2021/10/24 09:26:38;;;;;;;3.00;1.00;;;;;;;6.12;72.77;99439.00;5079769;28;20343;-66
2021/10/24 09:29:24;;;;;;;2.50;0.95;;;;;;;5.62;73.87;99433.31;5064643;28;20264;-66
2021/10/24 09:32:10;;;;;;;1.50;1.00;;;;;;;5.75;73.59;99429.78;5063255;28;20071;-62
2021/10/24 09:35:02;;;;;;;1.42;0.90;;;;;;;5.84;74.48;99441.72;5082830;28;20037;-63
2021/10/24 09:37:51;;;;;;;2.50;1.08;;;;;;;5.76;74.72;99454.63;5079276;28;20032;-65
2021/10/24 09:40:45;;;;;;;2.47;1.05;;;;;;;5.76;74.48;99458.88;5080246;28;20036;-63
2021/10/24 09:43:32;;;;;;;1.85;0.80;;;;;;;5.65;73.90;99457.25;5080579;28;20215;-61
2021/10/24 09:46:18;;;;;;;1.85;1.20;;;;;;;5.85;74.21;99451.16;5078548;28;20040;-62
2021/10/24 09:49:18;;;;;;;3.78;1.00;;;;;;;5.75;73.33;99475.19;5079506;28;20081;-62
2021/10/24 09:52:23;;;;;;;1.50;1.17;;;;;;;5.78;73.93;99476.00;5080065;28;20139;-62
2021/10/24 09:55:17;;;;;;;3.22;1.67;;;;;;;5.69;74.69;99461.50;5073999;28;20345;-64
2021/10/24 09:58:03;;;;;;;2.90;1.45;;;;;;;5.72;75.77;99478.63;5066996;28;20095;-62
2021/10/24 10:00:49;;;;;;;1.85;1.30;;;;;;;5.94;74.88;99481.91;5076471;28;20037;-64
2021/10/24 10:03:37;;;;;;;2.88;1.58;;;;;;;5.74;74.19;99497.44;5062429;28;20025;-61
2021/10/24 10:06:23;;;;;;;2.60;1.50;;;;;;;5.92;73.90;99482.81;5081006;28;20035;-63
2021/10/24 10:09:11;;;;;;;4.90;1.52;;;;;;;5.85;73.54;99489.69;5080199;28;20060;-63
2021/10/24 10:11:59;;;;;;;2.25;1.45;;;;;;;5.70;74.09;99444.38;5083680;28;20035;-62
2021/10/24 10:14:47;;;;;;;1.83;1.10;;;;;;;5.93;71.49;99495.66;5080555;28;20036;-62
2021/10/24 10:17:33;;;;;;;2.13;1.30;;;;;;;6.02;72.51;99502.47;5082221;28;20017;-64
2021/10/24 10:20:27;;;;;;;1.88;1.38;;;;;;;5.85;70.31;99505.09;5080894;28;20036;-63
2021/10/24 10:23:16;;;;;;;2.13;1.20;;;;;;;6.03;70.74;99517.91;5067895;28;20159;-62
2021/10/24 10:26:39;;;;;;;2.28;1.00;;;;;;;5.75;70.44;99529.16;5063156;28;20261;-64
2021/10/24 10:29:52;;;;;;;2.67;1.10;;;;;;;5.79;68.81;99526.56;5080814;28;20082;-64
2021/10/24 10:32:48;;;;;;;;;;;;;;;5.86;69.24;99535.09;5064780;28;20218;-63
2021/10/24 10:35:52;;;;;;;2.28;1.60;;;;;;;5.43;69.24;99487.31;5077273;28;19920;-62
2021/10/24 10:38:43;;;;;;;1.92;1.30;;;;;;;5.67;69.61;99544.56;5077483;28;20029;-63
2021/10/24 10:41:34;;;;;;;1.65;1.30;;;;;;;5.63;70.36;99550.59;5078950;28;20024;-62
2021/10/24 10:44:20;;;;;;;1.30;1.20;;;;;;;5.64;69.15;99555.75;5071033;28;20081;-61
2021/10/24 10:47:45;;;;;;;1.20;0.80;;;;;;;5.75;69.17;99563.41;5078036;28;20052;-62
2021/10/24 10:50:40;;;;;;;0.82;0.70;;;;;;;5.82;68.17;99556.53;5078650;28;20334;-63
2021/10/24 10:53:32;;;;;;;0.93;0.75;;;;;;;5.65;68.67;99559.16;5077728;28;20219;-62
2021/10/24 10:56:25;;;;;;;1.00;0.90;;;;;;;5.63;69.28;99548.88;5083723;28;20352;-62
2021/10/24 10:59:29;;;;;;;1.92;1.23;;;;;;;5.58;69.54;99576.28;5081010;28;20055;-61
2021/10/24 11:02:20;;;;;;;2.03;1.15;;;;;;;5.32;69.38;99517.31;5064802;28;20476;-62
2021/10/24 11:05:06;;;;;;;1.17;1.08;;;;;;;5.73;70.58;99582.25;5065414;28;20052;-61
2021/10/24 11:07:52;;;;;;;1.92;1.10;;;;;;;5.85;69.25;99584.78;5082181;28;20214;-62
2021/10/24 11:10:46;;;;;;;1.70;1.20;;;;;;;5.84;70.03;99598.47;5068629;28;20028;-63
2021/10/24 11:13:37;;;;;;;2.67;1.05;;;;;;;5.80;70.62;99594.19;5082394;28;20028;-63
2021/10/24 11:16:35;;;;;;;1.42;0.80;;;;;;;5.86;69.43;99607.06;5083823;28;20055;-62
2021/10/24 11:19:27;;;;;;;2.40;1.13;;;;;;;5.83;68.71;99599.34;5081999;28;20091;-62
2021/10/24 11:22:17;;;;;;;;;;;;;;;5.70;68.25;99612.22;5083183;28;20039;-61
2021/10/24 11:25:03;;;;;;;3.95;1.33;;;;;;;5.20;69.68;99613.16;5079089;28;19908;-60
2021/10/24 11:27:49;;;;;;;3.53;0.85;;;;;;;5.11;72.78;99649.13;5083271;28;20225;-61
2021/10/24 11:30:37;;;;;;;2.20;0.90;;;;;;;5.00;73.70;99647.41;5083886;28;20054;-61
2021/10/24 11:33:23;;;;;;;0.63;0.63;;;;;;;5.10;73.48;99661.09;5084343;28;20257;-63
2021/10/24 11:36:09;;;;;;;1.02;0.90;;;;;;;5.02;73.87;99652.53;5084021;28;20029;-62
2021/10/24 11:38:57;;;;;;;1.00;0.77;;;;;;;5.01;73.20;99666.22;5084536;28;20029;-63
2021/10/24 11:41:43;;;;;;;1.50;0.90;;;;;;;4.91;73.17;99667.91;5083999;28;20035;-63
2021/10/24 11:44:29;;;;;;;0.80;0.80;;;;;;;4.70;73.50;99655.06;5084123;28;20025;-61
2021/10/24 11:47:15;;;;;;;0.95;0.80;;;;;;;4.72;74.47;99674.75;5083321;28;20404;-63
2021/10/24 11:50:01;;;;;;;0.80;0.80;;;;;;;4.83;74.74;99692.69;5083275;28;20035;-62
2021/10/24 11:52:58;;;;;;;0.70;0.70;;;;;;;4.48;72.61;99625.09;5084894;28;20028;-63
2021/10/24 11:55:45;;;;;;;0.90;0.90;;;;;;;4.99;72.32;99701.31;5080741;28;20043;-63
2021/10/24 11:58:50;;;;;;;1.10;1.00;;;;;;;4.89;72.83;99708.13;5081205;28;20047;-63
2021/10/24 12:01:36;;;;;;;1.10;0.95;;;;;;;5.00;71.77;99698.75;5082557;28;20036;-63
2021/10/24 12:04:22;;;;;;;1.55;0.88;;;;;;;4.92;72.23;99700.44;5065078;28;20029;-63
2021/10/24 12:07:08;;;;;;;0.95;0.80;;;;;;;4.79;70.49;99712.38;5068732;28;20111;-62
2021/10/24 12:09:54;;;;;;;2.45;0.90;;;;;;;4.95;70.45;99713.25;5068311;28;20040;-61
2021/10/24 12:12:41;;;;;;;1.70;1.00;;;;;;;4.94;70.50;99715.81;5067434;28;20032;-64
2021/10/24 12:15:38;;;;;;;1.27;1.10;;;;;;;5.12;69.95;99720.16;5052806;28;20060;-63
2021/10/24 12:18:35;;;;;;;1.50;0.90;;;;;;;5.05;71.44;99732.09;5050422;28;20048;-63
2021/10/24 12:21:25;;;;;;;2.38;1.10;;;;;;;5.00;68.55;99723.53;5062561;28;20028;-66
2021/10/24 12:24:22;;;;;;;6.68;1.02;;;;;;;4.85;68.96;99721.78;5061966;28;20025;-62
2021/10/24 12:27:29;;;;;;;2.03;0.95;;;;;;;4.69;69.33;99736.31;5053674;28;20017;-64
2021/10/24 12:30:19;;;;;;;1.67;1.30;;;;;;;4.76;71.11;99755.09;5046460;28;20036;-64
2021/10/24 12:33:12;;;;;;;1.10;1.00;;;;;;;4.69;69.47;99748.25;5047814;28;20025;-63
2021/10/24 12:36:00;;;;;;;1.17;1.08;;;;;;;4.70;69.88;99763.63;5043889;28;20096;-62
2021/10/24 12:38:53;;;;;;;1.17;0.98;;;;;;;4.85;69.84;99773.13;5060590;28;20036;-63
2021/10/24 12:41:46;;;;;;;1.33;1.23;;;;;;;4.81;70.33;99790.19;5062077;28;20036;-63
2021/10/24 12:44:33;;;;;;;1.85;1.17;;;;;;;4.85;69.19;99780.81;5047249;28;20036;-63
2021/10/24 12:47:20;;;;;;;1.23;1.10;;;;;;;4.80;68.36;99796.19;5047289;28;20021;-64
2021/10/24 12:50:07;;;;;;;1.15;1.10;;;;;;;4.76;68.23;99806.41;5049342;28;20036;-64
2021/10/24 12:53:11;;;;;;;5.15;1.55;;;;;;;4.66;68.41;99800.41;5024270;28;20094;-63
2021/10/24 12:56:04;;;;;;;1.95;1.45;;;;;;;4.76;67.25;99819.25;5050084;28;20036;-64
2021/10/24 12:58:51;;;;;;;0.90;0.90;;;;;;;4.75;67.75;99823.53;5059883;28;20052;-63
2021/10/24 13:01:37;;;;;;;2.90;1.13;;;;;;;4.77;68.68;99818.41;5060255;28;20028;-62
2021/10/24 13:04:24;;;;;;;1.70;1.30;;;;;;;4.78;67.74;99836.38;5061306;28;20100;-62
2021/10/24 13:07:10;;;;;;;5.07;1.38;;;;;;;4.85;67.20;99832.13;5059363;28;20013;-63
2021/10/24 13:09:55;;;;;;;2.17;1.10;;;;;;;4.80;66.98;99836.38;5060486;28;20140;-62
2021/10/24 13:12:41;;;;;;;1.92;1.25;;;;;;;4.52;66.81;99831.13;5060790;28;20074;-62
2021/10/24 13:15:27;;;;;;;1.85;1.00;;;;;;;4.60;66.25;99846.53;5060236;28;20048;-62
2021/10/24 13:18:14;;;;;;;1.80;1.17;;;;;;;4.46;65.77;99855.03;5062515;28;20033;-62